Welcome to Northern Hawkes Bay. New Zealand.
PWS Header
      nz Flag



Hit Counter


W3C Valid W3C Valid logo


    Wairoa

Select any of the Stations below to visit their websites.










Historic Data from Weather Underground
Select the location of interest below. Wairoa is the default. Please have patience, this Data is slow to load in.
Northern Hawkes Bay Historical Data
 
Daily Summary for February 22, 2018 Units:  Metric    English   Both
« Previous Day
Next Day »
Daily Weekly Monthly Yearly Custom
  Current: High: Low: Average:
Temperature: 16.9 °C 23.8 °C 13.5 °C 17.9 °C
Dew Point: 13.1 °C 16.7 °C 11.4 °C 13.3 °C
Humidity: 78% 94% 49% 76%
Wind Speed: 6.1km/h 24.5km/h 0.0km/h 6.3km/h
Wind Gust: 14.8km/h 34.3km/h - -
WindSSW - - SW
Pressure: 1011.4 hPa 1011.4 hPa 1005.0 hPa -
Precipitation: 1.5 mm      
Historical Graphs
 
 
Tabular Data for February 22, 2018
Time Temperature Dew Point Pressure Wind Wind Speed Wind Gust Humidity Rainfall Rate (Hourly) solar
00:01 17.9 °C 11.9 °C 1006.3 hPa Calm     68% 0.0 mm 0 W/m2
00:06 17.8 °C 12.1 °C 1006.3 hPa Calm     69% 0.0 mm 0 W/m2
00:11 17.7 °C 11.9 °C 1006.3 hPa Calm     69% 0.0 mm 0 W/m2
00:16 17.7 °C 12.2 °C 1006.3 hPa Calm     70% 0.0 mm 0 W/m2
00:21 17.6 °C 12.1 °C 1006.0 hPa Calm     70% 0.0 mm 0 W/m2
00:26 17.6 °C 12.3 °C 1006.3 hPa Calm   1.1 km/h 71% 0.0 mm 0 W/m2
00:31 17.5 °C 12.2 °C 1006.3 hPa Calm   1.1 km/h 71% 0.0 mm 0 W/m2
00:36 17.4 °C 12.1 °C 1006.3 hPa Calm     71% 0.0 mm 0 W/m2
00:41 17.4 °C 12.1 °C 1006.3 hPa Calm   1.1 km/h 71% 0.0 mm 0 W/m2
00:46 17.1 °C 11.8 °C 1006.3 hPa Calm   1.1 km/h 71% 0.0 mm 0 W/m2
00:51 17.0 °C 11.9 °C 1006.3 hPa Calm     72% 0.0 mm 0 W/m2
00:56 16.8 °C 11.9 °C 1006.0 hPa Calm     73% 0.0 mm 0 W/m2
01:01 16.5 °C 11.7 °C 1006.3 hPa Calm     73% 0.0 mm 0 W/m2
01:06 16.4 °C 11.8 °C 1006.0 hPa Calm     74% 0.0 mm 0 W/m2
01:11 16.4 °C 11.8 °C 1006.0 hPa Calm     74% 0.0 mm 0 W/m2
01:16 16.4 °C 11.8 °C 1006.0 hPa Calm     74% 0.0 mm 0 W/m2
01:21 16.3 °C 11.9 °C 1005.6 hPa Calm     75% 0.0 mm 0 W/m2
01:26 16.2 °C 11.8 °C 1005.6 hPa Calm     75% 0.0 mm 0 W/m2
01:31 16.1 °C 11.9 °C 1006.0 hPa Calm     76% 0.0 mm 0 W/m2
01:36 15.9 °C 11.9 °C 1005.6 hPa Calm     77% 0.0 mm 0 W/m2
01:41 15.7 °C 11.9 °C 1005.6 hPa Calm     78% 0.0 mm 0 W/m2
01:46 15.6 °C 11.8 °C 1005.6 hPa Calm     78% 0.0 mm 0 W/m2
01:51 15.5 °C 11.7 °C 1005.3 hPa Calm     78% 0.0 mm 0 W/m2
01:56 15.6 °C 12.0 °C 1005.3 hPa Calm     79% 0.0 mm 0 W/m2
02:01 15.8 °C 12.0 °C 1005.6 hPa Calm     78% 0.0 mm 0 W/m2
02:06 16.1 °C 11.9 °C 1005.6 hPa Calm     76% 0.0 mm 0 W/m2
02:11 16.1 °C 11.7 °C 1005.3 hPa Calm     75% 0.0 mm 0 W/m2
02:16 16.1 °C 11.7 °C 1005.6 hPa Calm     75% 0.0 mm 0 W/m2
02:21 16.0 °C 11.6 °C 1005.6 hPa Calm     75% 0.0 mm 0 W/m2
02:26 15.9 °C 11.9 °C 1005.6 hPa Calm   1.1 km/h 77% 0.0 mm 0 W/m2
02:31 15.9 °C 11.9 °C 1005.6 hPa Calm   1.1 km/h 77% 0.0 mm 0 W/m2
02:36 16.0 °C 11.6 °C 1005.6 hPa Calm   1.1 km/h 75% 0.0 mm 0 W/m2
02:41 16.2 °C 11.6 °C 1005.6 hPa Calm     74% 0.0 mm 0 W/m2
02:46 16.4 °C 11.8 °C 1005.3 hPa Calm     74% 0.0 mm 0 W/m2
02:51 16.4 °C 11.6 °C 1005.3 hPa Calm     73% 0.0 mm 0 W/m2
02:56 16.0 °C 11.4 °C 1005.3 hPa Calm     74% 0.0 mm 0 W/m2
03:01 15.9 °C 11.7 °C 1005.3 hPa Calm     76% 0.0 mm 0 W/m2
03:11 15.5 °C 11.7 °C 1005.6 hPa Calm     78% 0.0 mm 0 W/m2
03:17 15.4 °C 12.0 °C 1005.6 hPa Calm     80% 0.0 mm 0 W/m2
03:22 15.4 °C 12.0 °C 1005.3 hPa Calm     80% 0.0 mm 0 W/m2
03:27 15.2 °C 11.8 °C 1005.6 hPa Calm     80% 0.0 mm 0 W/m2
03:32 15.2 °C 11.8 °C 1005.6 hPa Calm     80% 0.0 mm 0 W/m2
03:37 15.2 °C 11.9 °C 1005.6 hPa Calm     81% 0.0 mm 0 W/m2
03:43 15.0 °C 11.8 °C 1005.6 hPa Calm     81% 0.0 mm 0 W/m2
03:48 15.0 °C 11.8 °C 1005.3 hPa Calm     81% 0.0 mm 0 W/m2
03:53 14.9 °C 12.1 °C 1005.3 hPa Calm     83% 0.0 mm 0 W/m2
03:58 14.9 °C 12.1 °C 1005.3 hPa Calm     83% 0.0 mm 0 W/m2
04:03 14.9 °C 12.1 °C 1005.0 hPa Calm     83% 0.0 mm 0 W/m2
04:08 14.7 °C 11.8 °C 1005.0 hPa Calm     83% 0.0 mm 0 W/m2
04:13 14.5 °C 11.7 °C 1005.0 hPa Calm     83% 0.0 mm 0 W/m2
04:18 14.5 °C 11.8 °C 1005.0 hPa Calm     84% 0.0 mm 0 W/m2
04:23 14.6 °C 12.1 °C 1005.0 hPa Calm     85% 0.0 mm 0 W/m2
04:28 14.5 °C 12.0 °C 1005.0 hPa Calm     85% 0.0 mm 0 W/m2
04:33 14.4 °C 11.9 °C 1005.0 hPa Calm     85% 0.0 mm 0 W/m2
04:38 14.3 °C 11.8 °C 1005.0 hPa Calm     85% 0.0 mm 0 W/m2
04:43 14.2 °C 11.7 °C 1005.0 hPa Calm     85% 0.0 mm 0 W/m2
04:48 14.1 °C 11.8 °C 1005.0 hPa Calm     86% 0.0 mm 0 W/m2
04:53 14.0 °C 11.7 °C 1005.0 hPa Calm     86% 0.0 mm 0 W/m2
04:58 14.0 °C 11.7 °C 1005.0 hPa Calm     86% 0.0 mm 0 W/m2
05:03 13.9 °C 11.8 °C 1005.3 hPa Calm     87% 0.0 mm 0 W/m2
05:08 13.7 °C 11.8 °C 1005.3 hPa Calm     88% 0.0 mm 0 W/m2
05:13 13.7 °C 11.8 °C 1005.0 hPa Calm     88% 0.0 mm 0 W/m2
05:18 13.7 °C 11.9 °C 1005.3 hPa Calm     89% 0.0 mm 0 W/m2
05:23 13.6 °C 11.8 °C 1005.3 hPa Calm     89% 0.0 mm 0 W/m2
05:28 13.5 °C 11.7 °C 1005.3 hPa Calm     89% 0.0 mm 0 W/m2
05:33 13.7 °C 12.1 °C 1005.3 hPa Calm     90% 0.0 mm 0 W/m2
05:38 13.7 °C 12.3 °C 1005.3 hPa Calm     91% 0.0 mm 0 W/m2
05:43 13.7 °C 12.3 °C 1005.3 hPa Calm     91% 0.0 mm 0 W/m2
05:48 13.9 °C 12.4 °C 1005.3 hPa Calm     91% 0.0 mm 0 W/m2
05:53 13.9 °C 12.4 °C 1005.3 hPa Calm     91% 0.0 mm 0 W/m2
05:58 14.0 °C 12.6 °C 1005.3 hPa Calm     91% 0.0 mm 0 W/m2
06:03 14.2 °C 12.9 °C 1005.3 hPa Calm     92% 0.0 mm 0 W/m2
06:08 14.4 °C 13.1 °C 1005.3 hPa Calm     92% 0.0 mm 0 W/m2
06:13 14.5 °C 13.2 °C 1005.3 hPa Calm     92% 0.0 mm 0 W/m2
06:32 14.8 °C 13.0 °C 1005.3 hPa Calm     89% 0.0 mm 0 W/m2
06:37 15.4 °C 12.9 °C 1005.3 hPa Calm   1.1 km/h 85% 0.0 mm 0 W/m2
06:42 15.4 °C 12.9 °C 1005.6 hPa Calm   1.1 km/h 85% 0.0 mm 0 W/m2
06:47 15.2 °C 12.5 °C 1005.3 hPa Calm     84% 0.0 mm 1 W/m2
06:52 15.1 °C 12.4 °C 1005.3 hPa Calm     84% 0.0 mm 4 W/m2
06:57 14.9 °C 12.6 °C 1005.3 hPa Calm     86% 0.0 mm 8 W/m2
07:02 14.7 °C 12.6 °C 1005.3 hPa Calm     87% 0.0 mm 12 W/m2
07:07 14.6 °C 12.4 °C 1005.3 hPa Calm     87% 0.0 mm 18 W/m2
07:12 14.7 °C 12.7 °C 1005.6 hPa Calm     88% 0.0 mm 50 W/m2
07:30 16.2 °C 13.5 °C 1005.6 hPa Calm     84% 0.0 mm 93 W/m2
07:35 16.4 °C 13.3 °C 1005.6 hPa Calm     82% 0.0 mm 102 W/m2
07:40 16.6 °C 12.8 °C 1005.3 hPa Calm     78% 0.0 mm 110 W/m2
07:45 16.9 °C 12.8 °C 1005.3 hPa Calm   1.1 km/h 77% 0.0 mm 117 W/m2
07:50 17.2 °C 12.7 °C 1005.3 hPa Calm   1.1 km/h 75% 0.0 mm 123 W/m2
07:55 17.4 °C 12.7 °C 1005.3 hPa Calm   1.1 km/h 74% 0.0 mm 132 W/m2
08:00 17.7 °C 12.8 °C 1005.3 hPa Calm     73% 0.0 mm 137 W/m2
08:05 18.1 °C 13.2 °C 1005.3 hPa Calm     73% 0.0 mm 145 W/m2
08:10 18.6 °C 13.2 °C 1005.3 hPa Calm     71% 0.0 mm 154 W/m2
08:16 19.4 °C 14.2 °C 1005.3 hPa Calm     72% 0.0 mm 160 W/m2
08:21 20.2 °C 13.9 °C 1005.3 hPa Calm     67% 0.0 mm 167 W/m2
08:26 20.7 °C 13.7 °C 1005.3 hPa Calm     64% 0.0 mm 176 W/m2
08:31 20.9 °C 13.6 °C 1005.6 hPa Calm     63% 0.0 mm 186 W/m2
08:36 21.4 °C 13.6 °C 1005.6 hPa Calm     61% 0.0 mm 197 W/m2
08:41 21.4 °C 13.6 °C 1005.6 hPa Calm     61% 0.0 mm 205 W/m2
08:46 21.4 °C 12.8 °C 1005.6 hPa Calm     58% 0.0 mm 217 W/m2
08:51 21.3 °C 13.0 °C 1005.6 hPa Calm     59% 0.0 mm 230 W/m2
08:56 21.1 °C 12.3 °C 1005.6 hPa Calm     57% 0.0 mm 267 W/m2
09:01 21.7 °C 13.6 °C 1005.6 hPa Calm     60% 0.0 mm 152 W/m2
09:06 21.3 °C 12.4 °C 1005.6 hPa Calm     57% 0.0 mm 116 W/m2
09:11 20.9 °C 12.8 °C 1005.6 hPa Calm     60% 0.0 mm 129 W/m2
09:16 20.9 °C 13.1 °C 1006.0 hPa Calm     61% 0.0 mm 125 W/m2
09:21 20.9 °C 13.1 °C 1006.0 hPa Calm     61% 0.0 mm 140 W/m2
09:26 20.8 °C 12.8 °C 1005.6 hPa Calm     60% 0.0 mm 148 W/m2
09:31 20.9 °C 12.8 °C 1006.0 hPa Calm     60% 0.0 mm 257 W/m2
09:37 21.2 °C 12.9 °C 1006.0 hPa Calm     59% 0.0 mm 123 W/m2
09:42 20.9 °C 12.3 °C 1006.0 hPa Calm     58% 0.0 mm 157 W/m2
09:47 20.9 °C 13.1 °C 1006.0 hPa Calm     61% 0.0 mm 360 W/m2
09:52 21.9 °C 13.3 °C 1006.0 hPa Calm     58% 0.0 mm 370 W/m2
09:59 22.6 °C 13.1 °C 1006.0 hPa Calm     55% 0.0 mm 385 W/m2
10:04 22.7 °C 12.7 °C 1006.0 hPa Calm     53% 0.0 mm 396 W/m2
10:10 22.8 °C 12.7 °C 1006.0 hPa NNE 2.6 km/h 7.2 km/h 53% 0.0 mm 427 W/m2
10:15 23.0 °C 12.9 °C 1006.0 hPa North 7.2 km/h 12.2 km/h 53% 0.0 mm 432 W/m2
10:20 22.8 °C 13.0 °C 1006.0 hPa NNW 5.0 km/h 13.4 km/h 54% 0.0 mm 455 W/m2
10:25 22.8 °C 13.0 °C 1006.0 hPa NNW 5.0 km/h 13.4 km/h 54% 0.0 mm 455 W/m2
10:30 22.4 °C 12.9 °C 1006.0 hPa Calm   13.4 km/h 55% 0.0 mm 467 W/m2
10:35 23.0 °C 13.5 °C 1006.0 hPa NW 6.1 km/h 13.4 km/h 55% 0.0 mm 497 W/m2
10:40 23.0 °C 13.2 °C 1006.0 hPa NNW 3.5 km/h 13.4 km/h 54% 0.0 mm 494 W/m2
10:45 22.8 °C 13.0 °C 1006.0 hPa NW 3.5 km/h 17.2 km/h 54% 0.0 mm 280 W/m2
10:50 23.0 °C 13.2 °C 1006.0 hPa NW 3.5 km/h 13.4 km/h 54% 0.0 mm 240 W/m2
10:56 23.1 °C 13.3 °C 1006.0 hPa NNW 13.4 km/h 18.3 km/h 54% 0.0 mm 350 W/m2
11:01 22.9 °C 12.6 °C 1006.0 hPa North 11.1 km/h 18.3 km/h 52% 0.0 mm 626 W/m2
11:06 23.0 °C 12.6 °C 1006.3 hPa NNW 7.2 km/h 18.3 km/h 52% 0.0 mm 627 W/m2
11:12 23.0 °C 12.9 °C 1005.6 hPa NW 1.1 km/h 17.2 km/h 53% 0.0 mm 699 W/m2
11:17 23.8 °C 13.7 °C 1006.0 hPa Calm   17.2 km/h 53% 0.0 mm 269 W/m2
11:22 23.2 °C 12.2 °C 1005.6 hPa NW 5.0 km/h 19.5 km/h 50% 0.0 mm 224 W/m2
11:27 23.3 °C 12.9 °C 1005.6 hPa NW 8.7 km/h 20.9 km/h 52% 0.0 mm 800 W/m2
11:32 23.8 °C 12.8 °C 1005.6 hPa NW 7.2 km/h 20.9 km/h 50% 0.0 mm 759 W/m2
11:37 23.7 °C 12.7 °C 1005.6 hPa NW 12.2 km/h 19.5 km/h 50% 0.0 mm 671 W/m2
11:42 23.8 °C 12.8 °C 1006.0 hPa NNW 9.7 km/h 19.5 km/h 50% 0.0 mm 576 W/m2
11:47 23.8 °C 12.8 °C 1005.6 hPa NNW 7.2 km/h 19.5 km/h 50% 0.0 mm 263 W/m2
11:51 23.3 °C 12.0 °C 1005.6 hPa NW 14.8 km/h 20.9 km/h 49% 0.0 mm 208 W/m2
11:57 22.8 °C 12.4 °C 1005.6 hPa NW 2.6 km/h 20.9 km/h 52% 0.0 mm 196 W/m2
12:02 22.8 °C 12.4 °C 1005.6 hPa NW 5.0 km/h 19.5 km/h 52% 0.0 mm 191 W/m2
12:06 22.8 °C 12.7 °C 1005.6 hPa WNW 8.7 km/h 13.4 km/h 53% 0.0 mm 197 W/m2
12:11 22.6 °C 12.6 °C 1005.6 hPa NW 9.7 km/h 17.2 km/h 53% 0.0 mm 203 W/m2
12:17 22.7 °C 12.7 °C 1005.6 hPa NW 7.2 km/h 17.2 km/h 53% 0.0 mm 221 W/m2
12:22 22.6 °C 12.3 °C 1005.6 hPa NW 2.6 km/h 18.3 km/h 52% 0.0 mm 199 W/m2
12:27 22.7 °C 12.9 °C 1005.6 hPa WNW 8.7 km/h 18.3 km/h 54% 0.0 mm 184 W/m2
12:32 22.6 °C 12.8 °C 1005.6 hPa NW 6.1 km/h 15.8 km/h 54% 0.0 mm 247 W/m2
12:37 22.7 °C 12.9 °C 1005.6 hPa NW 3.5 km/h 15.8 km/h 54% 0.0 mm 207 W/m2
12:41 22.9 °C 13.4 °C 1005.6 hPa Calm   13.4 km/h 55% 0.0 mm 220 W/m2
12:47 22.8 °C 12.7 °C 1005.6 hPa NW 1.1 km/h 12.2 km/h 53% 0.0 mm 204 W/m2
12:52 22.6 °C 13.1 °C 1005.6 hPa Calm   13.4 km/h 55% 0.0 mm 174 W/m2
12:57 22.7 °C 13.2 °C 1006.0 hPa WNW 12.2 km/h 21.9 km/h 55% 0.0 mm 98 W/m2
13:02 20.8 °C 15.8 °C 1006.0 hPa SW 9.7 km/h 30.6 km/h 73% 0.0 mm 122 W/m2
13:07 19.8 °C 16.3 °C 1006.0 hPa SSW 14.8 km/h 30.6 km/h 80% 0.0 mm 126 W/m2
13:12 19.2 °C 16.3 °C 1006.3 hPa SSW 15.8 km/h 28.0 km/h 83% 0.0 mm 132 W/m2
13:17 18.9 °C 16.5 °C 1006.3 hPa SSW 19.5 km/h 33.1 km/h 86% 0.0 mm 99 W/m2
13:22 18.5 °C 16.1 °C 1006.3 hPa SSW 5.0 km/h 33.1 km/h 86% 0.0 mm 114 W/m2
13:26 18.4 °C 16.4 °C 1006.7 hPa SSW 11.1 km/h 27.0 km/h 88% 0.0 mm 127 W/m2
13:32 18.2 °C 16.4 °C 1006.7 hPa SSW 12.2 km/h 25.6 km/h 89% 0.0 mm 136 W/m2
13:37 17.8 °C 16.3 °C 1006.7 hPa SSW 13.4 km/h 25.6 km/h 91% 0.0 mm 154 W/m2
13:42 17.7 °C 16.4 °C 1006.7 hPa SSW 9.7 km/h 25.6 km/h 92% 0.3 mm 151 W/m2
13:46 17.5 °C 16.4 °C 1006.7 hPa South 8.7 km/h 21.9 km/h 93% 0.5 mm 97 W/m2
13:52 17.6 °C 16.6 °C 1006.7 hPa South 9.7 km/h 20.9 km/h 94% 0.5 mm 139 W/m2
13:57 17.6 °C 16.4 °C 1007.0 hPa SSW 11.1 km/h 23.3 km/h 93% 1.0 mm 163 W/m2
14:01 17.6 °C 16.6 °C 1007.0 hPa South 9.7 km/h 27.0 km/h 94% 1.0 mm 141 W/m2
14:07 17.5 °C 16.4 °C 1007.0 hPa South 6.1 km/h 27.0 km/h 93% 1.3 mm 174 W/m2
14:11 17.5 °C 16.2 °C 1007.0 hPa South 17.2 km/h 28.0 km/h 92% 1.3 mm 257 W/m2
14:17 17.7 °C 16.4 °C 1007.3 hPa South 13.4 km/h 28.0 km/h 92% 1.3 mm 203 W/m2
14:22 17.7 °C 16.2 °C 1007.3 hPa SSW 15.8 km/h 31.7 km/h 91% 1.3 mm 237 W/m2
14:27 18.1 °C 16.6 °C 1007.3 hPa SSW 12.2 km/h 31.7 km/h 91% 1.3 mm 284 W/m2
14:32 18.2 °C 16.4 °C 1007.3 hPa SSW 13.4 km/h 31.7 km/h 89% 1.3 mm 254 W/m2
14:36 18.5 °C 16.7 °C 1007.3 hPa South 12.2 km/h 31.7 km/h 89% 1.3 mm 180 W/m2
14:42 18.3 °C 16.3 °C 1007.3 hPa South 18.3 km/h 29.4 km/h 88% 1.0 mm 258 W/m2
14:47 18.4 °C 16.4 °C 1007.3 hPa SSW 17.2 km/h 29.4 km/h 88% 0.5 mm 260 W/m2
14:52 18.4 °C 16.2 °C 1007.3 hPa SSW 20.9 km/h 29.4 km/h 87% 0.5 mm 309 W/m2
14:56 18.5 °C 16.3 °C 1007.3 hPa SW 15.8 km/h 31.7 km/h 87% 0.3 mm 284 W/m2
15:02 18.2 °C 16.0 °C 1007.7 hPa SSW 24.5 km/h 34.3 km/h 87% 0.3 mm 183 W/m2
15:06 17.8 °C 15.4 °C 1007.3 hPa SSW 20.9 km/h 34.3 km/h 86% 0.0 mm 193 W/m2
15:11 17.6 °C 15.8 °C 1007.3 hPa SSW 17.2 km/h 33.1 km/h 89% 0.0 mm 248 W/m2
15:17 17.7 °C 16.1 °C 1007.7 hPa SSW 21.9 km/h 31.7 km/h 90% 0.0 mm 263 W/m2
15:22 17.6 °C 15.6 °C 1007.7 hPa SSW 19.5 km/h 31.7 km/h 88% 0.3 mm 199 W/m2
15:26 17.6 °C 15.8 °C 1007.7 hPa South 15.8 km/h 31.7 km/h 89% 0.3 mm 211 W/m2
15:32 17.6 °C 15.4 °C 1007.7 hPa SSW 24.5 km/h 34.3 km/h 87% 0.3 mm 162 W/m2
15:36 17.7 °C 15.5 °C 1007.7 hPa SSW 19.5 km/h 34.3 km/h 87% 0.3 mm 152 W/m2
15:41 17.6 °C 15.1 °C 1007.3 hPa South 18.3 km/h 34.3 km/h 85% 0.3 mm 192 W/m2
15:46 17.8 °C 15.3 °C 1007.7 hPa SSW 18.3 km/h 29.4 km/h 85% 0.3 mm 213 W/m2
15:51 17.9 °C 15.3 °C 1007.7 hPa SSW 15.8 km/h 31.7 km/h 85% 0.3 mm 222 W/m2
15:57 18.1 °C 15.4 °C 1007.7 hPa SSW 11.1 km/h 31.7 km/h 84% 0.3 mm 213 W/m2
16:01 18.3 °C 15.7 °C 1007.7 hPa SSW 18.3 km/h 30.6 km/h 85% 0.3 mm 271 W/m2
16:06 18.3 °C 15.6 °C 1007.7 hPa SSW 14.8 km/h 31.7 km/h 84% 0.3 mm 216 W/m2
16:11 18.2 °C 15.7 °C 1007.7 hPa SSW 17.2 km/h 31.7 km/h 85% 0.3 mm 226 W/m2
16:16 18.3 °C 15.7 °C 1007.7 hPa SSW 13.4 km/h 29.4 km/h 85% 0.3 mm 161 W/m2
16:21 18.0 °C 15.4 °C 1007.7 hPa South 15.8 km/h 33.1 km/h 85% 0.0 mm 135 W/m2
16:26 17.9 °C 15.2 °C 1008.0 hPa South 11.1 km/h 33.1 km/h 84% 0.0 mm 114 W/m2
16:31 17.8 °C 15.1 °C 1008.0 hPa SSW 17.2 km/h 25.6 km/h 84% 0.0 mm 97 W/m2
16:36 17.6 °C 14.7 °C 1008.0 hPa SSW 14.8 km/h 27.0 km/h 83% 0.0 mm 78 W/m2
16:41 17.6 °C 14.9 °C 1008.0 hPa SSW 8.7 km/h 27.0 km/h 84% 0.0 mm 79 W/m2
16:46 17.6 °C 14.9 °C 1008.0 hPa South 19.5 km/h 29.4 km/h 84% 0.0 mm 86 W/m2
16:51 17.7 °C 15.0 °C 1008.0 hPa SSW 17.2 km/h 29.4 km/h 84% 0.0 mm 96 W/m2
16:57 17.7 °C 15.0 °C 1008.0 hPa SSW 11.1 km/h 28.0 km/h 84% 0.0 mm 97 W/m2
17:01 17.7 °C 14.8 °C 1008.0 hPa SSW 17.2 km/h 28.0 km/h 83% 0.0 mm 106 W/m2
17:06 17.7 °C 14.8 °C 1008.0 hPa SSW 15.8 km/h 28.0 km/h 83% 0.0 mm 125 W/m2
17:11 17.9 °C 15.0 °C 1008.0 hPa SSW 15.8 km/h 25.6 km/h 83% 0.0 mm 105 W/m2
17:16 17.8 °C 14.7 °C 1008.0 hPa SSW 17.2 km/h 29.4 km/h 82% 0.0 mm 77 W/m2
17:21 17.7 °C 14.4 °C 1008.0 hPa South 9.7 km/h 29.4 km/h 81% 0.0 mm 70 W/m2
17:26 17.7 °C 14.4 °C 1008.4 hPa South 13.4 km/h 27.0 km/h 81% 0.0 mm 67 W/m2
17:31 17.7 °C 14.8 °C 1008.0 hPa South 12.2 km/h 23.3 km/h 83% 0.0 mm 79 W/m2
17:36 17.7 °C 14.6 °C 1008.0 hPa South 15.8 km/h 29.4 km/h 82% 0.0 mm 87 W/m2
17:41 17.7 °C 14.6 °C 1008.0 hPa South 14.8 km/h 29.4 km/h 82% 0.0 mm 85 W/m2
17:46 17.7 °C 14.2 °C 1008.0 hPa South 14.8 km/h 24.5 km/h 80% 0.0 mm 79 W/m2
17:51 17.7 °C 14.4 °C 1008.4 hPa South 12.2 km/h 25.6 km/h 81% 0.0 mm 55 W/m2
17:56 17.7 °C 14.6 °C 1008.4 hPa SSW 12.2 km/h 28.0 km/h 82% 0.0 mm 39 W/m2
18:01 17.6 °C 14.3 °C 1008.4 hPa South 17.2 km/h 28.0 km/h 81% 0.0 mm 38 W/m2
18:06 17.5 °C 14.2 °C 1008.4 hPa SSW 14.8 km/h 25.6 km/h 81% 0.0 mm 36 W/m2
18:11 17.5 °C 14.4 °C 1008.4 hPa SSW 15.8 km/h 25.6 km/h 82% 0.0 mm 30 W/m2
18:16 17.5 °C 14.2 °C 1008.4 hPa SSW 8.7 km/h 28.0 km/h 81% 0.0 mm 40 W/m2
18:21 17.5 °C 14.2 °C 1008.4 hPa SSW 13.4 km/h 28.0 km/h 81% 0.0 mm 42 W/m2
18:26 17.5 °C 14.2 °C 1008.4 hPa South 12.2 km/h 25.6 km/h 81% 0.0 mm 40 W/m2
18:31 17.5 °C 14.0 °C 1008.7 hPa South 9.7 km/h 25.6 km/h 80% 0.0 mm 39 W/m2
18:36 17.5 °C 13.8 °C 1008.7 hPa South 12.2 km/h 27.0 km/h 79% 0.0 mm 36 W/m2
18:41 17.5 °C 13.8 °C 1008.7 hPa SSW 13.4 km/h 30.6 km/h 79% 0.0 mm 32 W/m2
18:46 17.4 °C 13.9 °C 1008.7 hPa South 12.2 km/h 30.6 km/h 80% 0.0 mm 27 W/m2
18:51 17.4 °C 13.7 °C 1008.7 hPa South 8.7 km/h 25.6 km/h 79% 0.0 mm 25 W/m2
18:56 17.4 °C 13.6 °C 1008.7 hPa SSW 15.8 km/h 25.6 km/h 78% 0.0 mm 19 W/m2
19:01 17.4 °C 13.6 °C 1008.7 hPa SSW 11.1 km/h 25.6 km/h 78% 0.0 mm 19 W/m2
19:06 17.4 °C 13.3 °C 1009.0 hPa South 14.8 km/h 25.6 km/h 77% 0.0 mm 17 W/m2
19:11 17.4 °C 13.3 °C 1009.0 hPa South 12.2 km/h 21.9 km/h 77% 0.0 mm 12 W/m2
19:16 17.3 °C 13.4 °C 1009.0 hPa South 11.1 km/h 27.0 km/h 78% 0.0 mm 11 W/m2
19:21 17.3 °C 12.8 °C 1009.0 hPa South 11.1 km/h 27.0 km/h 75% 0.0 mm 9 W/m2
19:26 17.3 °C 13.1 °C 1009.4 hPa SSW 15.8 km/h 27.0 km/h 76% 0.0 mm 7 W/m2
19:31 17.2 °C 12.3 °C 1009.4 hPa South 13.4 km/h 27.0 km/h 73% 0.0 mm 5 W/m2
19:36 17.2 °C 12.3 °C 1009.0 hPa South 11.1 km/h 29.4 km/h 73% 0.0 mm 5 W/m2
19:41 17.2 °C 12.6 °C 1009.4 hPa SSW 13.4 km/h 29.4 km/h 74% 0.0 mm 3 W/m2
19:46 17.3 °C 12.8 °C 1009.4 hPa SSW 12.2 km/h 18.3 km/h 75% 0.0 mm 1 W/m2
19:51 17.3 °C 12.4 °C 1009.4 hPa SSW 14.8 km/h 24.5 km/h 73% 0.0 mm 0 W/m2
19:56 17.3 °C 12.6 °C 1009.4 hPa SSW 5.0 km/h 24.5 km/h 74% 0.0 mm 0 W/m2
20:01 17.2 °C 12.3 °C 1009.4 hPa SSW 15.8 km/h 25.6 km/h 73% 0.0 mm 0 W/m2
20:06 17.2 °C 12.3 °C 1009.7 hPa South 13.4 km/h 25.6 km/h 73% 0.0 mm 0 W/m2
20:11 17.2 °C 12.6 °C 1009.7 hPa South 12.2 km/h 25.6 km/h 74% 0.0 mm 0 W/m2
20:16 17.2 °C 12.7 °C 1009.7 hPa South 14.8 km/h 19.5 km/h 75% 0.0 mm 0 W/m2
20:21 17.5 °C 12.8 °C 1010.0 hPa South 8.7 km/h 20.9 km/h 74% 0.0 mm 0 W/m2
20:26 17.3 °C 12.6 °C 1010.0 hPa SSW 8.7 km/h 20.9 km/h 74% 0.0 mm 0 W/m2
20:31 17.2 °C 12.7 °C 1010.0 hPa SSW 7.2 km/h 17.2 km/h 75% 0.0 mm 0 W/m2
20:36 17.2 °C 13.2 °C 1010.0 hPa South 7.2 km/h 18.3 km/h 77% 0.0 mm 0 W/m2
20:41 17.4 °C 13.3 °C 1010.0 hPa South 11.1 km/h 18.3 km/h 77% 0.0 mm 0 W/m2
20:46 17.2 °C 13.6 °C 1010.0 hPa South 9.7 km/h 19.5 km/h 79% 0.0 mm 0 W/m2
20:52 17.2 °C 13.2 °C 1010.0 hPa SSW 14.8 km/h 19.5 km/h 77% 0.0 mm 0 W/m2
20:57 17.2 °C 13.2 °C 1010.0 hPa South 7.2 km/h 23.3 km/h 77% 0.0 mm 0 W/m2
21:02 17.2 °C 12.9 °C 1010.0 hPa South 7.2 km/h 23.3 km/h 76% 0.0 mm 0 W/m2
21:07 17.2 °C 12.6 °C 1010.0 hPa South 9.7 km/h 21.9 km/h 74% 0.0 mm 0 W/m2
21:13 17.2 °C 12.6 °C 1010.0 hPa SSW 12.2 km/h 21.9 km/h 74% 0.0 mm 0 W/m2
21:18 17.4 °C 12.5 °C 1010.0 hPa SSW 9.7 km/h 19.5 km/h 73% 0.0 mm 0 W/m2
21:23 17.2 °C 12.6 °C 1010.4 hPa South 8.7 km/h 17.2 km/h 74% 0.0 mm 0 W/m2
21:28 17.1 °C 12.7 °C 1010.4 hPa South 6.1 km/h 20.9 km/h 75% 0.0 mm 0 W/m2
21:33 17.3 °C 12.8 °C 1010.4 hPa South 5.0 km/h 24.5 km/h 75% 0.0 mm 0 W/m2
21:39 17.1 °C 12.7 °C 1010.7 hPa South 11.1 km/h 24.5 km/h 75% 0.0 mm 0 W/m2
21:44 17.1 °C 12.4 °C 1010.7 hPa South 6.1 km/h 24.5 km/h 74% 0.0 mm 0 W/m2
21:49 17.1 °C 12.7 °C 1010.7 hPa SSW 12.2 km/h 24.5 km/h 75% 0.0 mm 0 W/m2
21:54 17.3 °C 12.4 °C 1010.7 hPa South 7.2 km/h 18.3 km/h 73% 0.0 mm 0 W/m2
22:00 17.2 °C 12.1 °C 1010.7 hPa South 9.7 km/h 18.3 km/h 72% 0.0 mm 0 W/m2
22:06 17.4 °C 12.5 °C 1010.7 hPa South 5.0 km/h 18.3 km/h 73% 0.0 mm 0 W/m2
22:11 17.2 °C 12.7 °C 1010.7 hPa SSW 7.2 km/h 14.8 km/h 75% 0.0 mm 0 W/m2
22:16 17.1 °C 12.7 °C 1010.7 hPa South 7.2 km/h 15.8 km/h 75% 0.0 mm 0 W/m2
22:22 16.8 °C 12.6 °C 1010.7 hPa SSW 3.5 km/h 17.2 km/h 76% 0.0 mm 0 W/m2
22:27 16.9 °C 12.7 °C 1011.1 hPa SSW 7.2 km/h 17.2 km/h 76% 0.0 mm 0 W/m2
22:33 17.1 °C 12.7 °C 1011.1 hPa South 7.2 km/h 19.5 km/h 75% 0.0 mm 0 W/m2
22:38 17.1 °C 12.7 °C 1011.1 hPa South 1.1 km/h 19.5 km/h 75% 0.0 mm 0 W/m2
22:43 17.1 °C 12.4 °C 1011.1 hPa South 6.1 km/h 14.8 km/h 74% 0.0 mm 0 W/m2
22:48 17.1 °C 12.7 °C 1011.4 hPa South 1.1 km/h 15.8 km/h 75% 0.0 mm 0 W/m2
22:53 16.9 °C 12.7 °C 1011.1 hPa South 9.7 km/h 15.8 km/h 76% 0.0 mm 0 W/m2
22:58 17.1 °C 12.7 °C 1011.1 hPa South 3.5 km/h 15.8 km/h 75% 0.0 mm 0 W/m2
23:03 17.1 °C 12.7 °C 1011.1 hPa South 11.1 km/h 15.8 km/h 75% 0.0 mm 0 W/m2
23:08 17.1 °C 12.8 °C 1011.4 hPa SSW 6.1 km/h 13.4 km/h 76% 0.0 mm 0 W/m2
23:13 16.7 °C 12.7 °C 1011.1 hPa SSW 3.5 km/h 13.4 km/h 77% 0.0 mm 0 W/m2
23:18 16.9 °C 13.1 °C 1011.4 hPa SSW 6.1 km/h 14.8 km/h 78% 0.0 mm 0 W/m2
Northern Hawkes Bay. New Zealand Historic Data
Compliments of Weather Underground - 2 mb